sensor_id;sensor_type;location;lat;lon;timestamp;P1;durP1;ratioP1;P2;durP2;ratioP2
19842;SDS011;10082;51.038;6.992;2024-03-23T00:54:06;23.98;;;11.65;;
19842;SDS011;10082;51.038;6.992;2024-03-23T00:56:34;15.15;;;11.13;;
19842;SDS011;10082;51.038;6.992;2024-03-23T00:58:59;22.70;;;11.65;;
19842;SDS011;10082;51.038;6.992;2024-03-23T01:01:26;21.42;;;12.18;;
19842;SDS011;10082;51.038;6.992;2024-03-23T01:03:52;19.17;;;12.27;;
19842;SDS011;10082;51.038;6.992;2024-03-23T01:06:19;12.65;;;6.72;;
19842;SDS011;10082;51.038;6.992;2024-03-23T01:08:48;11.05;;;6.40;;
19842;SDS011;10082;51.038;6.992;2024-03-23T01:11:16;12.93;;;6.40;;
19842;SDS011;10082;51.038;6.992;2024-03-23T01:13:41;8.98;;;5.75;;
19842;SDS011;10082;51.038;6.992;2024-03-23T01:16:08;9.70;;;6.13;;
19842;SDS011;10082;51.038;6.992;2024-03-23T01:18:34;9.23;;;5.68;;
19842;SDS011;10082;51.038;6.992;2024-03-23T01:21:01;10.63;;;5.93;;
19842;SDS011;10082;51.038;6.992;2024-03-23T01:23:29;8.90;;;5.40;;
19842;SDS011;10082;51.038;6.992;2024-03-23T01:25:56;9.27;;;4.97;;
19842;SDS011;10082;51.038;6.992;2024-03-23T01:28:23;7.43;;;4.72;;
19842;SDS011;10082;51.038;6.992;2024-03-23T01:30:52;8.32;;;4.43;;
19842;SDS011;10082;51.038;6.992;2024-03-23T01:33:20;7.53;;;3.90;;
19842;SDS011;10082;51.038;6.992;2024-03-23T01:35:46;6.85;;;3.85;;
19842;SDS011;10082;51.038;6.992;2024-03-23T01:38:13;8.73;;;3.88;;
19842;SDS011;10082;51.038;6.992;2024-03-23T01:40:39;6.88;;;3.78;;
19842;SDS011;10082;51.038;6.992;2024-03-23T01:43:08;8.60;;;4.10;;
19842;SDS011;10082;51.038;6.992;2024-03-23T01:45:34;6.95;;;4.03;;
19842;SDS011;10082;51.038;6.992;2024-03-23T01:48:01;8.20;;;4.03;;
19842;SDS011;10082;51.038;6.992;2024-03-23T01:50:28;10.63;;;3.83;;
19842;SDS011;10082;51.038;6.992;2024-03-23T01:53:01;7.55;;;3.70;;
19842;SDS011;10082;51.038;6.992;2024-03-23T01:55:28;6.70;;;3.70;;
19842;SDS011;10082;51.038;6.992;2024-03-23T01:57:56;7.68;;;3.90;;
19842;SDS011;10082;51.038;6.992;2024-03-23T02:00:24;6.85;;;3.50;;
19842;SDS011;10082;51.038;6.992;2024-03-23T02:02:53;7.00;;;3.85;;
19842;SDS011;10082;51.038;6.992;2024-03-23T02:05:20;6.68;;;3.58;;
19842;SDS011;10082;51.038;6.992;2024-03-23T02:07:47;7.65;;;3.80;;
19842;SDS011;10082;51.038;6.992;2024-03-23T02:10:13;8.88;;;3.95;;
19842;SDS011;10082;51.038;6.992;2024-03-23T02:12:40;8.77;;;3.75;;
19842;SDS011;10082;51.038;6.992;2024-03-23T02:15:13;7.15;;;3.95;;
19842;SDS011;10082;51.038;6.992;2024-03-23T02:17:41;9.05;;;4.30;;
19842;SDS011;10082;51.038;6.992;2024-03-23T02:20:08;8.45;;;4.07;;
19842;SDS011;10082;51.038;6.992;2024-03-23T02:22:38;8.85;;;4.00;;
19842;SDS011;10082;51.038;6.992;2024-03-23T02:25:06;7.93;;;4.47;;
19842;SDS011;10082;51.038;6.992;2024-03-23T02:27:34;8.90;;;4.40;;
19842;SDS011;10082;51.038;6.992;2024-03-23T02:30:01;7.32;;;3.75;;
19842;SDS011;10082;51.038;6.992;2024-03-23T02:32:28;7.38;;;3.42;;
19842;SDS011;10082;51.038;6.992;2024-03-23T02:34:54;7.55;;;3.58;;
19842;SDS011;10082;51.038;6.992;2024-03-23T02:37:22;6.97;;;3.47;;
19842;SDS011;10082;51.038;6.992;2024-03-23T02:39:47;5.65;;;3.22;;
19842;SDS011;10082;51.038;6.992;2024-03-23T02:42:17;5.70;;;3.53;;
19842;SDS011;10082;51.038;6.992;2024-03-23T02:44:43;6.22;;;3.72;;
19842;SDS011;10082;51.038;6.992;2024-03-23T02:47:11;7.00;;;4.00;;
19842;SDS011;10082;51.038;6.992;2024-03-23T02:49:37;7.13;;;4.03;;
19842;SDS011;10082;51.038;6.992;2024-03-23T02:52:06;8.60;;;3.85;;
19842;SDS011;10082;51.038;6.992;2024-03-23T02:54:32;7.13;;;3.50;;
19842;SDS011;10082;51.038;6.992;2024-03-23T02:56:59;5.40;;;3.47;;
19842;SDS011;10082;51.038;6.992;2024-03-23T02:59:26;9.73;;;3.88;;
19842;SDS011;10082;51.038;6.992;2024-03-23T03:01:54;8.07;;;3.65;;
19842;SDS011;10082;51.038;6.992;2024-03-23T03:04:21;9.85;;;3.35;;
19842;SDS011;10082;51.038;6.992;2024-03-23T03:06:48;7.37;;;3.20;;
19842;SDS011;10082;51.038;6.992;2024-03-23T03:09:14;6.32;;;3.05;;
19842;SDS011;10082;51.038;6.992;2024-03-23T03:11:42;7.47;;;3.45;;
19842;SDS011;10082;51.038;6.992;2024-03-23T03:14:08;5.60;;;3.10;;
19842;SDS011;10082;51.038;6.992;2024-03-23T03:16:36;7.25;;;3.30;;
19842;SDS011;10082;51.038;6.992;2024-03-23T03:19:02;7.10;;;3.60;;
19842;SDS011;10082;51.038;6.992;2024-03-23T03:21:30;8.85;;;3.50;;
19842;SDS011;10082;51.038;6.992;2024-03-23T03:23:55;7.72;;;3.17;;
19842;SDS011;10082;51.038;6.992;2024-03-23T03:26:22;8.02;;;3.25;;
19842;SDS011;10082;51.038;6.992;2024-03-23T03:28:49;6.75;;;3.20;;
19842;SDS011;10082;51.038;6.992;2024-03-23T03:31:17;8.18;;;3.15;;
19842;SDS011;10082;51.038;6.992;2024-03-23T03:33:45;6.63;;;3.20;;
19842;SDS011;10082;51.038;6.992;2024-03-23T03:36:13;6.05;;;3.08;;
19842;SDS011;10082;51.038;6.992;2024-03-23T03:38:43;7.38;;;3.20;;
19842;SDS011;10082;51.038;6.992;2024-03-23T03:41:11;7.47;;;3.17;;
19842;SDS011;10082;51.038;6.992;2024-03-23T03:43:37;8.38;;;3.00;;
19842;SDS011;10082;51.038;6.992;2024-03-23T03:46:05;9.37;;;3.40;;
19842;SDS011;10082;51.038;6.992;2024-03-23T03:48:33;6.93;;;2.93;;
19842;SDS011;10082;51.038;6.992;2024-03-23T03:51:02;6.83;;;2.80;;
19842;SDS011;10082;51.038;6.992;2024-03-23T03:53:28;7.43;;;3.35;;
19842;SDS011;10082;51.038;6.992;2024-03-23T03:55:55;8.70;;;3.10;;
19842;SDS011;10082;51.038;6.992;2024-03-23T03:58:21;9.45;;;3.22;;
19842;SDS011;10082;51.038;6.992;2024-03-23T04:00:50;8.10;;;3.92;;
19842;SDS011;10082;51.038;6.992;2024-03-23T04:03:16;7.10;;;3.93;;
19842;SDS011;10082;51.038;6.992;2024-03-23T04:05:47;6.63;;;3.75;;
19842;SDS011;10082;51.038;6.992;2024-03-23T04:08:17;10.50;;;4.32;;
19842;SDS011;10082;51.038;6.992;2024-03-23T04:10:45;6.67;;;4.03;;
19842;SDS011;10082;51.038;6.992;2024-03-23T04:13:13;8.33;;;3.60;;
19842;SDS011;10082;51.038;6.992;2024-03-23T04:15:43;7.73;;;3.50;;
19842;SDS011;10082;51.038;6.992;2024-03-23T04:18:09;6.97;;;4.03;;
19842;SDS011;10082;51.038;6.992;2024-03-23T04:20:37;7.97;;;3.53;;
19842;SDS011;10082;51.038;6.992;2024-03-23T04:23:06;7.13;;;3.05;;
19842;SDS011;10082;51.038;6.992;2024-03-23T04:25:35;8.73;;;3.27;;
19842;SDS011;10082;51.038;6.992;2024-03-23T04:28:01;7.20;;;2.70;;
19842;SDS011;10082;51.038;6.992;2024-03-23T04:30:29;9.48;;;3.20;;
19842;SDS011;10082;51.038;6.992;2024-03-23T04:32:57;8.57;;;3.70;;
19842;SDS011;10082;51.038;6.992;2024-03-23T04:35:26;6.28;;;2.90;;
19842;SDS011;10082;51.038;6.992;2024-03-23T04:37:52;7.13;;;2.83;;
19842;SDS011;10082;51.038;6.992;2024-03-23T04:40:20;7.63;;;3.03;;
19842;SDS011;10082;51.038;6.992;2024-03-23T04:42:49;8.13;;;3.27;;
19842;SDS011;10082;51.038;6.992;2024-03-23T04:45:16;7.97;;;3.20;;
19842;SDS011;10082;51.038;6.992;2024-03-23T04:47:44;6.13;;;2.93;;
19842;SDS011;10082;51.038;6.992;2024-03-23T04:50:09;9.23;;;3.70;;
19842;SDS011;10082;51.038;6.992;2024-03-23T04:52:37;7.93;;;2.90;;
19842;SDS011;10082;51.038;6.992;2024-03-23T04:55:06;8.32;;;3.15;;
19842;SDS011;10082;51.038;6.992;2024-03-23T04:57:33;7.65;;;3.17;;
19842;SDS011;10082;51.038;6.992;2024-03-23T05:00:01;8.33;;;3.20;;
19842;SDS011;10082;51.038;6.992;2024-03-23T05:02:29;6.60;;;3.10;;
19842;SDS011;10082;51.038;6.992;2024-03-23T05:04:58;8.23;;;2.87;;
19842;SDS011;10082;51.038;6.992;2024-03-23T05:07:24;11.00;;;3.20;;
19842;SDS011;10082;51.038;6.992;2024-03-23T05:09:51;11.37;;;3.50;;
19842;SDS011;10082;51.038;6.992;2024-03-23T05:12:17;8.50;;;3.30;;
19842;SDS011;10082;51.038;6.992;2024-03-23T05:14:45;9.37;;;3.00;;
19842;SDS011;10082;51.038;6.992;2024-03-23T05:17:12;12.10;;;4.10;;
19842;SDS011;10082;51.038;6.992;2024-03-23T05:19:39;9.60;;;3.60;;
19842;SDS011;10082;51.038;6.992;2024-03-23T05:22:05;12.15;;;3.92;;
19842;SDS011;10082;51.038;6.992;2024-03-23T05:24:32;9.52;;;3.50;;
19842;SDS011;10082;51.038;6.992;2024-03-23T05:26:58;7.70;;;3.40;;
19842;SDS011;10082;51.038;6.992;2024-03-23T05:29:31;13.52;;;4.75;;
19842;SDS011;10082;51.038;6.992;2024-03-23T05:31:57;10.27;;;4.90;;
19842;SDS011;10082;51.038;6.992;2024-03-23T05:34:26;9.00;;;3.92;;
19842;SDS011;10082;51.038;6.992;2024-03-23T05:36:53;8.32;;;4.25;;
19842;SDS011;10082;51.038;6.992;2024-03-23T05:39:20;11.93;;;4.73;;
19842;SDS011;10082;51.038;6.992;2024-03-23T05:41:47;10.60;;;4.50;;
19842;SDS011;10082;51.038;6.992;2024-03-23T05:44:14;9.73;;;4.30;;
19842;SDS011;10082;51.038;6.992;2024-03-23T05:46:41;12.45;;;4.50;;
19842;SDS011;10082;51.038;6.992;2024-03-23T05:49:13;10.93;;;4.83;;
19842;SDS011;10082;51.038;6.992;2024-03-23T05:51:44;11.53;;;4.27;;
19842;SDS011;10082;51.038;6.992;2024-03-23T05:54:11;7.88;;;4.22;;
19842;SDS011;10082;51.038;6.992;2024-03-23T05:56:37;9.17;;;4.30;;
19842;SDS011;10082;51.038;6.992;2024-03-23T05:59:04;7.00;;;4.13;;
19842;SDS011;10082;51.038;6.992;2024-03-23T06:01:32;8.20;;;4.50;;
19842;SDS011;10082;51.038;6.992;2024-03-23T06:03:59;12.30;;;5.15;;
19842;SDS011;10082;51.038;6.992;2024-03-23T06:06:26;11.60;;;4.78;;
19842;SDS011;10082;51.038;6.992;2024-03-23T06:08:57;13.15;;;4.65;;
19842;SDS011;10082;51.038;6.992;2024-03-23T06:11:22;9.23;;;4.30;;
19842;SDS011;10082;51.038;6.992;2024-03-23T06:13:53;12.60;;;4.50;;
19842;SDS011;10082;51.038;6.992;2024-03-23T06:16:19;11.70;;;4.30;;
19842;SDS011;10082;51.038;6.992;2024-03-23T06:18:48;7.23;;;4.27;;
19842;SDS011;10082;51.038;6.992;2024-03-23T06:21:14;10.32;;;4.60;;
19842;SDS011;10082;51.038;6.992;2024-03-23T06:23:41;9.68;;;4.68;;
19842;SDS011;10082;51.038;6.992;2024-03-23T06:26:09;9.07;;;4.22;;
19842;SDS011;10082;51.038;6.992;2024-03-23T06:28:36;9.40;;;4.50;;
19842;SDS011;10082;51.038;6.992;2024-03-23T06:31:02;12.18;;;4.63;;
19842;SDS011;10082;51.038;6.992;2024-03-23T06:33:30;11.52;;;5.13;;
19842;SDS011;10082;51.038;6.992;2024-03-23T06:35:56;12.00;;;4.60;;
19842;SDS011;10082;51.038;6.992;2024-03-23T06:38:24;8.38;;;4.20;;
19842;SDS011;10082;51.038;6.992;2024-03-23T06:40:50;13.05;;;4.63;;
19842;SDS011;10082;51.038;6.992;2024-03-23T06:43:19;9.20;;;4.50;;
19842;SDS011;10082;51.038;6.992;2024-03-23T06:45:52;7.45;;;4.28;;
19842;SDS011;10082;51.038;6.992;2024-03-23T06:48:19;7.63;;;3.58;;
19842;SDS011;10082;51.038;6.992;2024-03-23T06:50:45;11.70;;;4.10;;
19842;SDS011;10082;51.038;6.992;2024-03-23T06:53:12;10.13;;;4.45;;
19842;SDS011;10082;51.038;6.992;2024-03-23T06:55:38;8.93;;;4.07;;
19842;SDS011;10082;51.038;6.992;2024-03-23T06:58:06;8.95;;;4.40;;
19842;SDS011;10082;51.038;6.992;2024-03-23T07:00:33;6.57;;;3.90;;
19842;SDS011;10082;51.038;6.992;2024-03-23T07:03:00;8.17;;;3.60;;
19842;SDS011;10082;51.038;6.992;2024-03-23T07:05:26;8.55;;;4.05;;
19842;SDS011;10082;51.038;6.992;2024-03-23T07:07:54;7.95;;;4.22;;
19842;SDS011;10082;51.038;6.992;2024-03-23T07:10:20;9.98;;;4.30;;
19842;SDS011;10082;51.038;6.992;2024-03-23T07:12:47;8.23;;;4.32;;
19842;SDS011;10082;51.038;6.992;2024-03-23T07:15:13;9.50;;;4.38;;
19842;SDS011;10082;51.038;6.992;2024-03-23T07:17:46;8.48;;;4.22;;
19842;SDS011;10082;51.038;6.992;2024-03-23T07:20:12;7.85;;;4.18;;
19842;SDS011;10082;51.038;6.992;2024-03-23T07:22:39;7.13;;;3.92;;
19842;SDS011;10082;51.038;6.992;2024-03-23T07:25:05;8.48;;;4.18;;
19842;SDS011;10082;51.038;6.992;2024-03-23T07:27:33;7.30;;;4.25;;
19842;SDS011;10082;51.038;6.992;2024-03-23T07:29:59;8.00;;;4.53;;
19842;SDS011;10082;51.038;6.992;2024-03-23T07:32:26;8.30;;;4.40;;
19842;SDS011;10082;51.038;6.992;2024-03-23T07:34:54;9.27;;;4.57;;
19842;SDS011;10082;51.038;6.992;2024-03-23T07:37:21;7.95;;;4.80;;
19842;SDS011;10082;51.038;6.992;2024-03-23T07:39:48;9.63;;;4.10;;
19842;SDS011;10082;51.038;6.992;2024-03-23T07:42:15;9.25;;;4.28;;
19842;SDS011;10082;51.038;6.992;2024-03-23T07:44:41;8.60;;;4.50;;
19842;SDS011;10082;51.038;6.992;2024-03-23T07:47:08;7.88;;;4.25;;
19842;SDS011;10082;51.038;6.992;2024-03-23T07:49:34;8.18;;;4.07;;
19842;SDS011;10082;51.038;6.992;2024-03-23T07:52:03;9.00;;;4.30;;
19842;SDS011;10082;51.038;6.992;2024-03-23T07:54:29;7.97;;;4.25;;
19842;SDS011;10082;51.038;6.992;2024-03-23T07:56:56;10.15;;;4.90;;
19842;SDS011;10082;51.038;6.992;2024-03-23T07:59:22;8.88;;;5.20;;
19842;SDS011;10082;51.038;6.992;2024-03-23T08:01:50;9.02;;;5.18;;
19842;SDS011;10082;51.038;6.992;2024-03-23T08:04:16;8.68;;;5.93;;
19842;SDS011;10082;51.038;6.992;2024-03-23T08:06:43;8.80;;;5.57;;
19842;SDS011;10082;51.038;6.992;2024-03-23T08:09:11;9.10;;;5.53;;
19842;SDS011;10082;51.038;6.992;2024-03-23T08:11:38;10.93;;;5.78;;
19842;SDS011;10082;51.038;6.992;2024-03-23T08:14:04;9.10;;;5.18;;
19842;SDS011;10082;51.038;6.992;2024-03-23T08:16:31;6.80;;;5.00;;
19842;SDS011;10082;51.038;6.992;2024-03-23T08:18:59;8.75;;;5.30;;
19842;SDS011;10082;51.038;6.992;2024-03-23T08:21:28;9.27;;;4.57;;
19842;SDS011;10082;51.038;6.992;2024-03-23T08:23:54;7.80;;;4.20;;
19842;SDS011;10082;51.038;6.992;2024-03-23T08:26:26;8.00;;;4.82;;
19842;SDS011;10082;51.038;6.992;2024-03-23T08:28:52;6.85;;;4.55;;
19842;SDS011;10082;51.038;6.992;2024-03-23T08:31:19;8.60;;;4.40;;
19842;SDS011;10082;51.038;6.992;2024-03-23T08:33:45;6.85;;;3.70;;
19842;SDS011;10082;51.038;6.992;2024-03-23T08:36:12;6.88;;;3.42;;
19842;SDS011;10082;51.038;6.992;2024-03-23T08:38:39;6.18;;;3.58;;
19842;SDS011;10082;51.038;6.992;2024-03-23T08:41:07;9.13;;;3.80;;
19842;SDS011;10082;51.038;6.992;2024-03-23T08:43:37;7.22;;;3.80;;
19842;SDS011;10082;51.038;6.992;2024-03-23T08:46:11;6.32;;;3.53;;
19842;SDS011;10082;51.038;6.992;2024-03-23T08:48:38;5.53;;;3.33;;
19842;SDS011;10082;51.038;6.992;2024-03-23T08:51:08;5.93;;;2.95;;
19842;SDS011;10082;51.038;6.992;2024-03-23T08:53:35;5.00;;;2.72;;
19842;SDS011;10082;51.038;6.992;2024-03-23T08:56:04;4.35;;;2.63;;
19842;SDS011;10082;51.038;6.992;2024-03-23T08:58:31;6.32;;;2.70;;
19842;SDS011;10082;51.038;6.992;2024-03-23T09:01:04;4.60;;;2.72;;
19842;SDS011;10082;51.038;6.992;2024-03-23T09:03:31;7.63;;;2.75;;
19842;SDS011;10082;51.038;6.992;2024-03-23T09:05:59;6.05;;;3.22;;
19842;SDS011;10082;51.038;6.992;2024-03-23T09:08:25;7.47;;;3.60;;
19842;SDS011;10082;51.038;6.992;2024-03-23T09:10:52;7.05;;;4.10;;
19842;SDS011;10082;51.038;6.992;2024-03-23T09:13:19;6.90;;;4.03;;
19842;SDS011;10082;51.038;6.992;2024-03-23T09:15:46;8.82;;;3.75;;
19842;SDS011;10082;51.038;6.992;2024-03-23T09:18:16;7.72;;;3.90;;
19842;SDS011;10082;51.038;6.992;2024-03-23T09:20:43;6.97;;;3.40;;
19842;SDS011;10082;51.038;6.992;2024-03-23T09:23:09;8.75;;;3.95;;
19842;SDS011;10082;51.038;6.992;2024-03-23T09:25:36;8.45;;;3.58;;
19842;SDS011;10082;51.038;6.992;2024-03-23T09:28:03;6.95;;;3.30;;
19842;SDS011;10082;51.038;6.992;2024-03-23T09:30:32;6.57;;;3.40;;
19842;SDS011;10082;51.038;6.992;2024-03-23T09:32:58;8.25;;;3.53;;
19842;SDS011;10082;51.038;6.992;2024-03-23T09:35:27;9.88;;;3.58;;
19842;SDS011;10082;51.038;6.992;2024-03-23T09:37:56;7.38;;;3.20;;
19842;SDS011;10082;51.038;6.992;2024-03-23T09:40:23;7.03;;;3.30;;
19842;SDS011;10082;51.038;6.992;2024-03-23T09:42:49;6.22;;;2.85;;
19842;SDS011;10082;51.038;6.992;2024-03-23T09:45:19;7.97;;;3.15;;
19842;SDS011;10082;51.038;6.992;2024-03-23T09:47:46;7.03;;;2.47;;
19842;SDS011;10082;51.038;6.992;2024-03-23T09:50:15;4.05;;;2.38;;
19842;SDS011;10082;51.038;6.992;2024-03-23T09:52:50;5.13;;;3.20;;
19842;SDS011;10082;51.038;6.992;2024-03-23T09:55:17;5.18;;;2.42;;
19842;SDS011;10082;51.038;6.992;2024-03-23T09:57:43;8.35;;;3.22;;
19842;SDS011;10082;51.038;6.992;2024-03-23T10:00:10;7.25;;;3.17;;
19842;SDS011;10082;51.038;6.992;2024-03-23T10:02:37;5.68;;;3.08;;
19842;SDS011;10082;51.038;6.992;2024-03-23T10:05:09;6.13;;;2.30;;
19842;SDS011;10082;51.038;6.992;2024-03-23T10:07:47;4.03;;;1.77;;
19842;SDS011;10082;51.038;6.992;2024-03-23T10:10:17;7.95;;;2.10;;
19842;SDS011;10082;51.038;6.992;2024-03-23T10:12:44;4.43;;;1.95;;
19842;SDS011;10082;51.038;6.992;2024-03-23T10:15:15;6.25;;;2.10;;
19842;SDS011;10082;51.038;6.992;2024-03-23T10:17:43;5.22;;;2.38;;
19842;SDS011;10082;51.038;6.992;2024-03-23T10:20:11;5.80;;;1.70;;
19842;SDS011;10082;51.038;6.992;2024-03-23T10:22:37;4.55;;;1.83;;
19842;SDS011;10082;51.038;6.992;2024-03-23T10:25:08;4.72;;;2.17;;
19842;SDS011;10082;51.038;6.992;2024-03-23T10:27:37;4.47;;;1.98;;
19842;SDS011;10082;51.038;6.992;2024-03-23T10:30:08;5.15;;;1.95;;
19842;SDS011;10082;51.038;6.992;2024-03-23T10:32:35;4.90;;;2.05;;
19842;SDS011;10082;51.038;6.992;2024-03-23T10:35:17;3.42;;;1.60;;
19842;SDS011;10082;51.038;6.992;2024-03-23T10:37:44;6.40;;;1.88;;
19842;SDS011;10082;51.038;6.992;2024-03-23T10:40:12;5.22;;;1.60;;
19842;SDS011;10082;51.038;6.992;2024-03-23T10:42:40;4.13;;;1.05;;
19842;SDS011;10082;51.038;6.992;2024-03-23T10:45:08;4.32;;;1.55;;
19842;SDS011;10082;51.038;6.992;2024-03-23T10:47:35;3.58;;;1.17;;
19842;SDS011;10082;51.038;6.992;2024-03-23T10:50:03;1.58;;;1.20;;
19842;SDS011;10082;51.038;6.992;2024-03-23T10:52:30;3.55;;;1.23;;
19842;SDS011;10082;51.038;6.992;2024-03-23T10:55:01;3.10;;;0.95;;
19842;SDS011;10082;51.038;6.992;2024-03-23T10:57:34;3.13;;;1.30;;
19842;SDS011;10082;51.038;6.992;2024-03-23T11:00:10;3.30;;;1.00;;
19842;SDS011;10082;51.038;6.992;2024-03-23T11:02:37;1.67;;;0.75;;
19842;SDS011;10082;51.038;6.992;2024-03-23T11:07:55;2.42;;;1.20;;
19842;SDS011;10082;51.038;6.992;2024-03-23T11:10:26;1.92;;;1.05;;
19842;SDS011;10082;51.038;6.992;2024-03-23T11:12:52;1.75;;;1.15;;
19842;SDS011;10082;51.038;6.992;2024-03-23T11:15:21;3.22;;;1.48;;
19842;SDS011;10082;51.038;6.992;2024-03-23T11:18:03;3.13;;;1.45;;
19842;SDS011;10082;51.038;6.992;2024-03-23T11:20:34;2.08;;;1.00;;
19842;SDS011;10082;51.038;6.992;2024-03-23T11:23:00;2.55;;;0.80;;
19842;SDS011;10082;51.038;6.992;2024-03-23T11:25:27;1.00;;;0.70;;
19842;SDS011;10082;51.038;6.992;2024-03-23T11:27:54;1.15;;;0.75;;
19842;SDS011;10082;51.038;6.992;2024-03-23T11:30:25;1.30;;;0.80;;
19842;SDS011;10082;51.038;6.992;2024-03-23T11:32:52;1.00;;;0.70;;
19842;SDS011;10082;51.038;6.992;2024-03-23T11:35:27;0.45;;;0.45;;
19842;SDS011;10082;51.038;6.992;2024-03-23T11:38:06;1.10;;;0.70;;
19842;SDS011;10082;51.038;6.992;2024-03-23T11:40:35;1.52;;;0.88;;
19842;SDS011;10082;51.038;6.992;2024-03-23T11:43:03;1.50;;;1.00;;
19842;SDS011;10082;51.038;6.992;2024-03-23T11:45:36;1.77;;;1.08;;
19842;SDS011;10082;51.038;6.992;2024-03-23T11:48:04;2.13;;;1.15;;
19842;SDS011;10082;51.038;6.992;2024-03-23T11:50:33;2.05;;;1.10;;
19842;SDS011;10082;51.038;6.992;2024-03-23T11:53:11;1.77;;;0.85;;
19842;SDS011;10082;51.038;6.992;2024-03-23T11:55:43;1.75;;;1.52;;
19842;SDS011;10082;51.038;6.992;2024-03-23T11:58:18;7.40;;;4.35;;
19842;SDS011;10082;51.038;6.992;2024-03-23T12:00:52;1.60;;;1.30;;
19842;SDS011;10082;51.038;6.992;2024-03-23T12:03:21;2.03;;;1.00;;
19842;SDS011;10082;51.038;6.992;2024-03-23T12:05:51;3.05;;;1.00;;
19842;SDS011;10082;51.038;6.992;2024-03-23T12:08:22;3.05;;;1.30;;
19842;SDS011;10082;51.038;6.992;2024-03-23T12:10:50;3.28;;;1.20;;
19842;SDS011;10082;51.038;6.992;2024-03-23T12:13:19;2.90;;;1.27;;
19842;SDS011;10082;51.038;6.992;2024-03-23T12:15:46;3.85;;;1.55;;
19842;SDS011;10082;51.038;6.992;2024-03-23T12:18:15;3.67;;;1.50;;
19842;SDS011;10082;51.038;6.992;2024-03-23T12:20:41;1.92;;;1.15;;
19842;SDS011;10082;51.038;6.992;2024-03-23T12:23:09;1.90;;;0.77;;
19842;SDS011;10082;51.038;6.992;2024-03-23T12:25:38;0.63;;;0.60;;
19842;SDS011;10082;51.038;6.992;2024-03-23T12:28:06;1.73;;;0.60;;
19842;SDS011;10082;51.038;6.992;2024-03-23T12:30:33;1.70;;;0.70;;
19842;SDS011;10082;51.038;6.992;2024-03-23T12:33:04;1.63;;;0.80;;
19842;SDS011;10082;51.038;6.992;2024-03-23T12:35:32;2.58;;;0.80;;
19842;SDS011;10082;51.038;6.992;2024-03-23T12:37:59;1.73;;;0.93;;
19842;SDS011;10082;51.038;6.992;2024-03-23T12:40:25;2.35;;;1.48;;
19842;SDS011;10082;51.038;6.992;2024-03-23T12:42:54;3.13;;;1.50;;
19842;SDS011;10082;51.038;6.992;2024-03-23T12:45:21;2.03;;;1.30;;
19842;SDS011;10082;51.038;6.992;2024-03-23T12:47:48;0.82;;;0.82;;
19842;SDS011;10082;51.038;6.992;2024-03-23T12:50:14;0.90;;;0.90;;
19842;SDS011;10082;51.038;6.992;2024-03-23T12:52:43;1.13;;;0.60;;
19842;SDS011;10082;51.038;6.992;2024-03-23T12:55:09;1.40;;;1.20;;
19842;SDS011;10082;51.038;6.992;2024-03-23T12:57:37;0.90;;;0.80;;
19842;SDS011;10082;51.038;6.992;2024-03-23T13:00:03;1.37;;;1.10;;
19842;SDS011;10082;51.038;6.992;2024-03-23T13:02:31;1.67;;;0.70;;
19842;SDS011;10082;51.038;6.992;2024-03-23T13:05:00;1.10;;;0.80;;
19842;SDS011;10082;51.038;6.992;2024-03-23T13:07:27;1.08;;;0.73;;
19842;SDS011;10082;51.038;6.992;2024-03-23T13:09:55;0.80;;;0.80;;
19842;SDS011;10082;51.038;6.992;2024-03-23T13:12:23;0.77;;;0.70;;
19842;SDS011;10082;51.038;6.992;2024-03-23T13:14:49;1.25;;;0.80;;
19842;SDS011;10082;51.038;6.992;2024-03-23T13:17:16;0.90;;;0.80;;
19842;SDS011;10082;51.038;6.992;2024-03-23T13:19:42;2.25;;;0.80;;
19842;SDS011;10082;51.038;6.992;2024-03-23T13:22:09;2.63;;;1.15;;
19842;SDS011;10082;51.038;6.992;2024-03-23T13:24:37;3.25;;;1.10;;
19842;SDS011;10082;51.038;6.992;2024-03-23T13:27:06;2.55;;;1.10;;
19842;SDS011;10082;51.038;6.992;2024-03-23T13:29:33;2.10;;;1.25;;
19842;SDS011;10082;51.038;6.992;2024-03-23T13:32:01;1.58;;;1.10;;
19842;SDS011;10082;51.038;6.992;2024-03-23T13:34:27;3.35;;;1.50;;
19842;SDS011;10082;51.038;6.992;2024-03-23T13:36:55;2.53;;;1.67;;
19842;SDS011;10082;51.038;6.992;2024-03-23T13:39:23;3.55;;;1.65;;
19842;SDS011;10082;51.038;6.992;2024-03-23T13:41:50;3.55;;;1.40;;
19842;SDS011;10082;51.038;6.992;2024-03-23T13:44:18;2.85;;;1.83;;
19842;SDS011;10082;51.038;6.992;2024-03-23T13:46:45;3.15;;;2.22;;
19842;SDS011;10082;51.038;6.992;2024-03-23T13:49:24;3.40;;;1.90;;
19842;SDS011;10082;51.038;6.992;2024-03-23T13:51:53;2.50;;;1.63;;
19842;SDS011;10082;51.038;6.992;2024-03-23T13:54:19;3.45;;;1.70;;
19842;SDS011;10082;51.038;6.992;2024-03-23T13:56:47;3.30;;;2.25;;
19842;SDS011;10082;51.038;6.992;2024-03-23T13:59:14;3.30;;;1.70;;
19842;SDS011;10082;51.038;6.992;2024-03-23T14:01:42;5.18;;;2.90;;
19842;SDS011;10082;51.038;6.992;2024-03-23T14:04:08;2.92;;;1.90;;
19842;SDS011;10082;51.038;6.992;2024-03-23T14:06:36;2.63;;;0.90;;
19842;SDS011;10082;51.038;6.992;2024-03-23T14:09:02;1.00;;;0.45;;
19842;SDS011;10082;51.038;6.992;2024-03-23T14:11:32;1.42;;;0.50;;
19842;SDS011;10082;51.038;6.992;2024-03-23T14:13:57;2.70;;;0.80;;
19842;SDS011;10082;51.038;6.992;2024-03-23T14:16:24;0.93;;;0.60;;
19842;SDS011;10082;51.038;6.992;2024-03-23T14:18:52;2.10;;;1.00;;
19842;SDS011;10082;51.038;6.992;2024-03-23T14:21:21;1.83;;;0.80;;
19842;SDS011;10082;51.038;6.992;2024-03-23T14:23:47;1.25;;;0.80;;
19842;SDS011;10082;51.038;6.992;2024-03-23T14:26:14;1.50;;;0.93;;
19842;SDS011;10082;51.038;6.992;2024-03-23T14:28:40;3.03;;;1.05;;
19842;SDS011;10082;51.038;6.992;2024-03-23T14:31:07;3.08;;;1.25;;
19842;SDS011;10082;51.038;6.992;2024-03-23T14:33:39;1.85;;;1.00;;
19842;SDS011;10082;51.038;6.992;2024-03-23T14:36:13;2.97;;;1.13;;
19842;SDS011;10082;51.038;6.992;2024-03-23T14:38:40;2.20;;;1.20;;
19842;SDS011;10082;51.038;6.992;2024-03-23T14:41:07;2.13;;;1.10;;
19842;SDS011;10082;51.038;6.992;2024-03-23T14:43:36;3.80;;;1.58;;
19842;SDS011;10082;51.038;6.992;2024-03-23T14:46:08;2.38;;;1.10;;
19842;SDS011;10082;51.038;6.992;2024-03-23T14:48:40;1.80;;;1.20;;
19842;SDS011;10082;51.038;6.992;2024-03-23T14:51:15;2.70;;;1.10;;
19842;SDS011;10082;51.038;6.992;2024-03-23T14:53:45;3.42;;;1.10;;
19842;SDS011;10082;51.038;6.992;2024-03-23T14:56:13;2.15;;;1.10;;
19842;SDS011;10082;51.038;6.992;2024-03-23T14:58:41;2.50;;;1.17;;
19842;SDS011;10082;51.038;6.992;2024-03-23T15:01:10;2.10;;;1.02;;
19842;SDS011;10082;51.038;6.992;2024-03-23T15:03:37;1.10;;;1.00;;
19842;SDS011;10082;51.038;6.992;2024-03-23T15:06:04;2.38;;;0.98;;
19842;SDS011;10082;51.038;6.992;2024-03-23T15:08:33;1.98;;;1.20;;
19842;SDS011;10082;51.038;6.992;2024-03-23T15:11:00;1.02;;;0.75;;
19842;SDS011;10082;51.038;6.992;2024-03-23T15:13:30;1.70;;;0.93;;
19842;SDS011;10082;51.038;6.992;2024-03-23T15:15:57;2.53;;;0.90;;
19842;SDS011;10082;51.038;6.992;2024-03-23T15:18:23;1.42;;;0.75;;
19842;SDS011;10082;51.038;6.992;2024-03-23T15:20:53;1.77;;;1.02;;
19842;SDS011;10082;51.038;6.992;2024-03-23T15:23:19;2.88;;;1.20;;
19842;SDS011;10082;51.038;6.992;2024-03-23T15:25:54;1.75;;;1.10;;
19842;SDS011;10082;51.038;6.992;2024-03-23T15:28:20;1.52;;;0.98;;
19842;SDS011;10082;51.038;6.992;2024-03-23T15:30:48;3.63;;;1.20;;
19842;SDS011;10082;51.038;6.992;2024-03-23T15:33:13;1.42;;;0.80;;
19842;SDS011;10082;51.038;6.992;2024-03-23T15:35:40;2.80;;;1.10;;
19842;SDS011;10082;51.038;6.992;2024-03-23T15:38:06;2.85;;;1.30;;
19842;SDS011;10082;51.038;6.992;2024-03-23T15:40:35;1.10;;;1.00;;
19842;SDS011;10082;51.038;6.992;2024-03-23T15:43:02;1.58;;;0.98;;
19842;SDS011;10082;51.038;6.992;2024-03-23T15:45:29;1.20;;;0.90;;